sensor_id;sensor_type;location;lat;lon;timestamp;temperature;humidity
78793;SHT31;68134;51.984;5.652;2024-02-21T00:01:37;11.5;71.9
78793;SHT31;68134;51.984;5.652;2024-02-21T00:04:06;11.5;72.0
78793;SHT31;68134;51.984;5.652;2024-02-21T00:06:34;11.5;72.1
78793;SHT31;68134;51.984;5.652;2024-02-21T00:09:03;11.5;71.9
78793;SHT31;68134;51.984;5.652;2024-02-21T00:11:31;11.5;72.1
78793;SHT31;68134;51.984;5.652;2024-02-21T00:14:02;11.5;71.9
78793;SHT31;68134;51.984;5.652;2024-02-21T00:16:30;11.5;71.8
78793;SHT31;68134;51.984;5.652;2024-02-21T00:18:59;11.5;72.0
78793;SHT31;68134;51.984;5.652;2024-02-21T00:21:27;11.5;72.1
78793;SHT31;68134;51.984;5.652;2024-02-21T00:23:56;11.5;71.8
78793;SHT31;68134;51.984;5.652;2024-02-21T00:26:24;11.5;72.2
78793;SHT31;68134;51.984;5.652;2024-02-21T00:28:53;11.5;72.2
78793;SHT31;68134;51.984;5.652;2024-02-21T00:31:22;11.5;72.2
78793;SHT31;68134;51.984;5.652;2024-02-21T00:33:50;11.5;72.2
78793;SHT31;68134;51.984;5.652;2024-02-21T00:36:19;11.5;72.1
78793;SHT31;68134;51.984;5.652;2024-02-21T00:38:47;11.5;72.2
78793;SHT31;68134;51.984;5.652;2024-02-21T00:41:16;11.5;72.3
78793;SHT31;68134;51.984;5.652;2024-02-21T00:43:44;11.5;72.3
78793;SHT31;68134;51.984;5.652;2024-02-21T00:46:14;11.5;72.4
78793;SHT31;68134;51.984;5.652;2024-02-21T00:48:45;11.5;72.2
78793;SHT31;68134;51.984;5.652;2024-02-21T00:51:13;11.5;71.9
78793;SHT31;68134;51.984;5.652;2024-02-21T00:53:42;11.5;72.0
78793;SHT31;68134;51.984;5.652;2024-02-21T00:56:10;11.5;72.0
78793;SHT31;68134;51.984;5.652;2024-02-21T00:58:39;11.5;71.9
78793;SHT31;68134;51.984;5.652;2024-02-21T01:01:07;11.5;72.0
78793;SHT31;68134;51.984;5.652;2024-02-21T01:03:41;11.5;71.9
78793;SHT31;68134;51.984;5.652;2024-02-21T01:06:09;11.5;71.7
78793;SHT31;68134;51.984;5.652;2024-02-21T01:08:38;11.5;71.7
78793;SHT31;68134;51.984;5.652;2024-02-21T01:11:06;11.5;71.7
78793;SHT31;68134;51.984;5.652;2024-02-21T01:13:35;11.5;71.6
78793;SHT31;68134;51.984;5.652;2024-02-21T01:16:04;11.5;71.6
78793;SHT31;68134;51.984;5.652;2024-02-21T01:18:33;11.5;71.7
78793;SHT31;68134;51.984;5.652;2024-02-21T01:21:02;11.5;71.4
78793;SHT31;68134;51.984;5.652;2024-02-21T01:23:33;11.5;71.7
78793;SHT31;68134;51.984;5.652;2024-02-21T01:26:03;11.5;71.6
78793;SHT31;68134;51.984;5.652;2024-02-21T01:28:36;11.5;71.7
78793;SHT31;68134;51.984;5.652;2024-02-21T01:31:05;11.5;72.0
78793;SHT31;68134;51.984;5.652;2024-02-21T01:33:33;11.6;71.8
78793;SHT31;68134;51.984;5.652;2024-02-21T01:36:05;11.6;71.4
78793;SHT31;68134;51.984;5.652;2024-02-21T01:38:35;11.6;71.6
78793;SHT31;68134;51.984;5.652;2024-02-21T01:41:03;11.6;71.5
78793;SHT31;68134;51.984;5.652;2024-02-21T01:43:32;11.6;71.2
78793;SHT31;68134;51.984;5.652;2024-02-21T01:46:02;11.6;71.2
78793;SHT31;68134;51.984;5.652;2024-02-21T01:48:30;11.5;71.4
78793;SHT31;68134;51.984;5.652;2024-02-21T01:51:01;11.5;71.4
78793;SHT31;68134;51.984;5.652;2024-02-21T01:53:34;11.5;71.5
78793;SHT31;68134;51.984;5.652;2024-02-21T01:56:05;11.5;71.4
78793;SHT31;68134;51.984;5.652;2024-02-21T01:58:36;11.5;71.7
78793;SHT31;68134;51.984;5.652;2024-02-21T02:01:06;11.5;71.7
78793;SHT31;68134;51.984;5.652;2024-02-21T02:03:34;11.4;71.8
78793;SHT31;68134;51.984;5.652;2024-02-21T02:06:05;11.4;71.7
78793;SHT31;68134;51.984;5.652;2024-02-21T02:08:35;11.4;72.0
78793;SHT31;68134;51.984;5.652;2024-02-21T02:11:04;11.4;71.9
78793;SHT31;68134;51.984;5.652;2024-02-21T02:13:33;11.4;72.1
78793;SHT31;68134;51.984;5.652;2024-02-21T02:16:01;11.4;72.4
78793;SHT31;68134;51.984;5.652;2024-02-21T02:18:30;11.4;72.2
78793;SHT31;68134;51.984;5.652;2024-02-21T02:20:59;11.4;71.8
78793;SHT31;68134;51.984;5.652;2024-02-21T02:23:28;11.4;72.1
78793;SHT31;68134;51.984;5.652;2024-02-21T02:25:58;11.4;71.7
78793;SHT31;68134;51.984;5.652;2024-02-21T02:28:29;11.4;71.6
78793;SHT31;68134;51.984;5.652;2024-02-21T02:30:57;11.4;71.7
78793;SHT31;68134;51.984;5.652;2024-02-21T02:33:26;11.4;71.7
78793;SHT31;68134;51.984;5.652;2024-02-21T02:35:55;11.4;71.9
78793;SHT31;68134;51.984;5.652;2024-02-21T02:38:25;11.4;72.0
78793;SHT31;68134;51.984;5.652;2024-02-21T02:40:55;11.4;72.1
78793;SHT31;68134;51.984;5.652;2024-02-21T02:43:24;11.4;71.9
78793;SHT31;68134;51.984;5.652;2024-02-21T02:45:52;11.3;71.8
78793;SHT31;68134;51.984;5.652;2024-02-21T02:48:22;11.3;71.9
78793;SHT31;68134;51.984;5.652;2024-02-21T02:50:50;11.3;71.9
78793;SHT31;68134;51.984;5.652;2024-02-21T02:53:19;11.3;71.9
78793;SHT31;68134;51.984;5.652;2024-02-21T02:55:47;11.3;72.1
78793;SHT31;68134;51.984;5.652;2024-02-21T02:58:16;11.3;71.9
78793;SHT31;68134;51.984;5.652;2024-02-21T03:00:44;11.3;72.0
78793;SHT31;68134;51.984;5.652;2024-02-21T03:03:13;11.3;71.8
78793;SHT31;68134;51.984;5.652;2024-02-21T03:05:41;11.3;72.0
78793;SHT31;68134;51.984;5.652;2024-02-21T03:08:10;11.3;71.8
78793;SHT31;68134;51.984;5.652;2024-02-21T03:10:40;11.3;72.1
78793;SHT31;68134;51.984;5.652;2024-02-21T03:13:08;11.3;72.3
78793;SHT31;68134;51.984;5.652;2024-02-21T03:15:37;11.3;72.2
78793;SHT31;68134;51.984;5.652;2024-02-21T03:18:06;11.3;71.8
78793;SHT31;68134;51.984;5.652;2024-02-21T03:20:34;11.3;71.9
78793;SHT31;68134;51.984;5.652;2024-02-21T03:23:03;11.3;71.8
78793;SHT31;68134;51.984;5.652;2024-02-21T03:25:32;11.3;72.0
78793;SHT31;68134;51.984;5.652;2024-02-21T03:28:00;11.3;72.1
78793;SHT31;68134;51.984;5.652;2024-02-21T03:30:29;11.3;71.9
78793;SHT31;68134;51.984;5.652;2024-02-21T03:32:57;11.3;72.5
78793;SHT31;68134;51.984;5.652;2024-02-21T03:35:26;11.3;72.4
78793;SHT31;68134;51.984;5.652;2024-02-21T03:37:55;11.3;72.1
78793;SHT31;68134;51.984;5.652;2024-02-21T03:40:23;11.4;72.5
78793;SHT31;68134;51.984;5.652;2024-02-21T03:42:52;11.4;72.7
78793;SHT31;68134;51.984;5.652;2024-02-21T03:45:20;11.4;72.5
78793;SHT31;68134;51.984;5.652;2024-02-21T03:47:49;11.4;71.9
78793;SHT31;68134;51.984;5.652;2024-02-21T03:50:19;11.4;72.1
78793;SHT31;68134;51.984;5.652;2024-02-21T03:52:48;11.4;72.5
78793;SHT31;68134;51.984;5.652;2024-02-21T03:55:16;11.4;71.9
78793;SHT31;68134;51.984;5.652;2024-02-21T03:57:45;11.4;72.0
78793;SHT31;68134;51.984;5.652;2024-02-21T04:00:14;11.4;72.1
78793;SHT31;68134;51.984;5.652;2024-02-21T04:02:43;11.4;72.0
78793;SHT31;68134;51.984;5.652;2024-02-21T04:05:11;11.4;72.0
78793;SHT31;68134;51.984;5.652;2024-02-21T04:07:40;11.4;72.4
78793;SHT31;68134;51.984;5.652;2024-02-21T04:10:09;11.4;72.3
78793;SHT31;68134;51.984;5.652;2024-02-21T04:12:37;11.4;71.9
78793;SHT31;68134;51.984;5.652;2024-02-21T04:15:07;11.4;72.0
78793;SHT31;68134;51.984;5.652;2024-02-21T04:17:36;11.4;72.1
78793;SHT31;68134;51.984;5.652;2024-02-21T04:20:05;11.4;72.2
78793;SHT31;68134;51.984;5.652;2024-02-21T04:22:37;11.3;72.4
78793;SHT31;68134;51.984;5.652;2024-02-21T04:25:06;11.3;72.1
78793;SHT31;68134;51.984;5.652;2024-02-21T04:27:35;11.3;72.2
78793;SHT31;68134;51.984;5.652;2024-02-21T04:30:04;11.3;72.2
78793;SHT31;68134;51.984;5.652;2024-02-21T04:32:33;11.3;72.1
78793;SHT31;68134;51.984;5.652;2024-02-21T04:35:01;11.3;72.3
78793;SHT31;68134;51.984;5.652;2024-02-21T04:37:30;11.3;72.3
78793;SHT31;68134;51.984;5.652;2024-02-21T04:39:59;11.3;72.0
78793;SHT31;68134;51.984;5.652;2024-02-21T04:42:27;11.3;72.3
78793;SHT31;68134;51.984;5.652;2024-02-21T04:44:56;11.3;72.3
78793;SHT31;68134;51.984;5.652;2024-02-21T04:47:26;11.3;72.1
78793;SHT31;68134;51.984;5.652;2024-02-21T04:49:56;11.3;72.3
78793;SHT31;68134;51.984;5.652;2024-02-21T04:52:24;11.3;72.1
78793;SHT31;68134;51.984;5.652;2024-02-21T04:54:53;11.3;72.3
78793;SHT31;68134;51.984;5.652;2024-02-21T04:57:22;11.3;72.3
78793;SHT31;68134;51.984;5.652;2024-02-21T04:59:51;11.3;72.3
78793;SHT31;68134;51.984;5.652;2024-02-21T05:02:20;11.3;72.4
78793;SHT31;68134;51.984;5.652;2024-02-21T05:04:50;11.3;72.3
78793;SHT31;68134;51.984;5.652;2024-02-21T05:07:19;11.3;72.2
78793;SHT31;68134;51.984;5.652;2024-02-21T05:09:47;11.3;72.3
78793;SHT31;68134;51.984;5.652;2024-02-21T05:12:16;11.3;72.0
78793;SHT31;68134;51.984;5.652;2024-02-21T05:14:45;11.2;72.0
78793;SHT31;68134;51.984;5.652;2024-02-21T05:17:14;11.2;72.1
78793;SHT31;68134;51.984;5.652;2024-02-21T05:19:43;11.2;72.2
78793;SHT31;68134;51.984;5.652;2024-02-21T05:22:11;11.2;72.4
78793;SHT31;68134;51.984;5.652;2024-02-21T05:24:40;11.1;72.3
78793;SHT31;68134;51.984;5.652;2024-02-21T05:27:09;11.1;72.5
78793;SHT31;68134;51.984;5.652;2024-02-21T05:29:37;11.1;72.4
78793;SHT31;68134;51.984;5.652;2024-02-21T05:32:06;11.1;72.8
78793;SHT31;68134;51.984;5.652;2024-02-21T05:34:35;11.1;72.9
78793;SHT31;68134;51.984;5.652;2024-02-21T05:37:04;11.0;73.0
78793;SHT31;68134;51.984;5.652;2024-02-21T05:39:32;11.0;72.8
78793;SHT31;68134;51.984;5.652;2024-02-21T05:42:01;11.0;73.0
78793;SHT31;68134;51.984;5.652;2024-02-21T05:44:29;11.0;73.0
78793;SHT31;68134;51.984;5.652;2024-02-21T05:46:58;11.0;73.0
78793;SHT31;68134;51.984;5.652;2024-02-21T05:49:26;11.0;72.8
78793;SHT31;68134;51.984;5.652;2024-02-21T05:51:55;11.0;72.9
78793;SHT31;68134;51.984;5.652;2024-02-21T05:54:23;11.0;73.0
78793;SHT31;68134;51.984;5.652;2024-02-21T05:56:52;11.0;73.2
78793;SHT31;68134;51.984;5.652;2024-02-21T05:59:20;11.0;73.3
78793;SHT31;68134;51.984;5.652;2024-02-21T06:01:56;10.9;73.4
78793;SHT31;68134;51.984;5.652;2024-02-21T06:04:26;10.9;73.2
78793;SHT31;68134;51.984;5.652;2024-02-21T06:06:54;10.9;73.3
78793;SHT31;68134;51.984;5.652;2024-02-21T06:09:23;10.9;73.2
78793;SHT31;68134;51.984;5.652;2024-02-21T06:11:51;10.9;73.3
78793;SHT31;68134;51.984;5.652;2024-02-21T06:14:20;10.9;73.3
78793;SHT31;68134;51.984;5.652;2024-02-21T06:16:50;10.9;73.5
78793;SHT31;68134;51.984;5.652;2024-02-21T06:19:19;10.8;73.4
78793;SHT31;68134;51.984;5.652;2024-02-21T06:21:47;10.8;73.5
78793;SHT31;68134;51.984;5.652;2024-02-21T06:24:16;10.8;73.5
78793;SHT31;68134;51.984;5.652;2024-02-21T06:26:46;10.8;73.5
78793;SHT31;68134;51.984;5.652;2024-02-21T06:29:16;10.8;73.6
78793;SHT31;68134;51.984;5.652;2024-02-21T06:31:47;10.8;73.7
78793;SHT31;68134;51.984;5.652;2024-02-21T06:34:15;10.8;73.6
78793;SHT31;68134;51.984;5.652;2024-02-21T06:36:44;10.8;73.6
78793;SHT31;68134;51.984;5.652;2024-02-21T06:39:13;10.8;73.5
78793;SHT31;68134;51.984;5.652;2024-02-21T06:41:42;10.9;73.1
78793;SHT31;68134;51.984;5.652;2024-02-21T06:44:10;10.9;73.2
78793;SHT31;68134;51.984;5.652;2024-02-21T06:46:39;10.9;73.1
78793;SHT31;68134;51.984;5.652;2024-02-21T06:49:07;10.9;73.2
78793;SHT31;68134;51.984;5.652;2024-02-21T06:51:41;10.9;73.3
78793;SHT31;68134;51.984;5.652;2024-02-21T06:54:10;10.9;73.3
78793;SHT31;68134;51.984;5.652;2024-02-21T06:56:39;10.9;73.3
78793;SHT31;68134;51.984;5.652;2024-02-21T06:59:08;10.9;73.0
78793;SHT31;68134;51.984;5.652;2024-02-21T07:01:37;10.9;72.7
78793;SHT31;68134;51.984;5.652;2024-02-21T07:04:06;10.9;72.9
78793;SHT31;68134;51.984;5.652;2024-02-21T07:06:35;10.9;72.8
78793;SHT31;68134;51.984;5.652;2024-02-21T07:09:03;10.9;72.7
78793;SHT31;68134;51.984;5.652;2024-02-21T07:11:32;10.9;72.9
78793;SHT31;68134;51.984;5.652;2024-02-21T07:14:00;10.9;72.7
78793;SHT31;68134;51.984;5.652;2024-02-21T07:16:29;10.9;72.6
78793;SHT31;68134;51.984;5.652;2024-02-21T07:18:59;10.9;72.7
78793;SHT31;68134;51.984;5.652;2024-02-21T07:21:27;10.9;72.6
78793;SHT31;68134;51.984;5.652;2024-02-21T07:23:56;10.9;72.3
78793;SHT31;68134;51.984;5.652;2024-02-21T07:26:24;10.9;72.1
78793;SHT31;68134;51.984;5.652;2024-02-21T07:28:55;10.9;72.3
78793;SHT31;68134;51.984;5.652;2024-02-21T07:31:23;10.8;72.3
78793;SHT31;68134;51.984;5.652;2024-02-21T07:33:52;10.8;72.3
78793;SHT31;68134;51.984;5.652;2024-02-21T07:36:28;10.8;72.4
78793;SHT31;68134;51.984;5.652;2024-02-21T07:38:57;10.8;72.4
78793;SHT31;68134;51.984;5.652;2024-02-21T07:41:26;10.8;72.4
78793;SHT31;68134;51.984;5.652;2024-02-21T07:43:57;10.8;72.5
78793;SHT31;68134;51.984;5.652;2024-02-21T07:46:25;10.8;72.6
78793;SHT31;68134;51.984;5.652;2024-02-21T07:48:54;10.8;72.4
78793;SHT31;68134;51.984;5.652;2024-02-21T07:51:29;10.8;72.3
78793;SHT31;68134;51.984;5.652;2024-02-21T07:53:57;10.8;72.4
78793;SHT31;68134;51.984;5.652;2024-02-21T07:56:30;10.8;72.1
78793;SHT31;68134;51.984;5.652;2024-02-21T07:58:59;10.8;72.4
78793;SHT31;68134;51.984;5.652;2024-02-21T08:01:28;10.8;72.2
78793;SHT31;68134;51.984;5.652;2024-02-21T08:03:56;10.8;72.5
78793;SHT31;68134;51.984;5.652;2024-02-21T08:06:25;10.8;72.5
78793;SHT31;68134;51.984;5.652;2024-02-21T08:08:55;10.8;72.1
78793;SHT31;68134;51.984;5.652;2024-02-21T08:11:26;10.8;72.0
78793;SHT31;68134;51.984;5.652;2024-02-21T08:13:55;10.8;72.1
78793;SHT31;68134;51.984;5.652;2024-02-21T08:16:25;10.8;71.8
78793;SHT31;68134;51.984;5.652;2024-02-21T08:18:54;10.8;72.2
78793;SHT31;68134;51.984;5.652;2024-02-21T08:21:24;10.9;72.2
78793;SHT31;68134;51.984;5.652;2024-02-21T08:23:52;10.9;71.8
78793;SHT31;68134;51.984;5.652;2024-02-21T08:26:21;10.9;71.7
78793;SHT31;68134;51.984;5.652;2024-02-21T08:28:50;10.9;71.7
78793;SHT31;68134;51.984;5.652;2024-02-21T08:31:20;10.9;71.6
78793;SHT31;68134;51.984;5.652;2024-02-21T08:33:51;10.9;71.4
78793;SHT31;68134;51.984;5.652;2024-02-21T08:36:19;11.0;71.0
78793;SHT31;68134;51.984;5.652;2024-02-21T08:38:48;11.0;71.0
78793;SHT31;68134;51.984;5.652;2024-02-21T08:41:17;11.0;71.1
78793;SHT31;68134;51.984;5.652;2024-02-21T08:43:45;11.0;70.9
78793;SHT31;68134;51.984;5.652;2024-02-21T08:46:14;11.0;71.0
78793;SHT31;68134;51.984;5.652;2024-02-21T08:48:43;11.0;70.8
78793;SHT31;68134;51.984;5.652;2024-02-21T08:51:12;11.1;70.4
78793;SHT31;68134;51.984;5.652;2024-02-21T08:53:40;11.1;70.4
78793;SHT31;68134;51.984;5.652;2024-02-21T08:56:09;11.1;70.5
78793;SHT31;68134;51.984;5.652;2024-02-21T08:58:39;11.1;70.0
78793;SHT31;68134;51.984;5.652;2024-02-21T09:01:08;11.1;70.1
78793;SHT31;68134;51.984;5.652;2024-02-21T09:03:38;11.1;70.2
78793;SHT31;68134;51.984;5.652;2024-02-21T09:06:09;11.1;70.3
78793;SHT31;68134;51.984;5.652;2024-02-21T09:08:41;11.1;70.7
78793;SHT31;68134;51.984;5.652;2024-02-21T09:11:10;11.1;70.3
78793;SHT31;68134;51.984;5.652;2024-02-21T09:13:38;11.1;70.3
78793;SHT31;68134;51.984;5.652;2024-02-21T09:16:07;11.1;70.3
78793;SHT31;68134;51.984;5.652;2024-02-21T09:18:36;11.1;70.2
78793;SHT31;68134;51.984;5.652;2024-02-21T09:21:07;11.2;69.9
78793;SHT31;68134;51.984;5.652;2024-02-21T09:23:36;11.2;70.0
78793;SHT31;68134;51.984;5.652;2024-02-21T09:26:04;11.2;69.9
78793;SHT31;68134;51.984;5.652;2024-02-21T09:28:34;11.2;70.2
78793;SHT31;68134;51.984;5.652;2024-02-21T09:31:03;11.3;69.9
78793;SHT31;68134;51.984;5.652;2024-02-21T09:33:31;11.3;69.6
78793;SHT31;68134;51.984;5.652;2024-02-21T09:36:01;11.3;69.2
78793;SHT31;68134;51.984;5.652;2024-02-21T09:38:32;11.3;69.2
78793;SHT31;68134;51.984;5.652;2024-02-21T09:41:11;11.4;69.4
78793;SHT31;68134;51.984;5.652;2024-02-21T09:43:42;11.4;69.3
78793;SHT31;68134;51.984;5.652;2024-02-21T09:46:16;11.4;69.2
78793;SHT31;68134;51.984;5.652;2024-02-21T09:48:58;11.4;68.9
78793;SHT31;68134;51.984;5.652;2024-02-21T09:51:34;11.5;69.1
78793;SHT31;68134;51.984;5.652;2024-02-21T09:54:05;11.5;69.1
78793;SHT31;68134;51.984;5.652;2024-02-21T09:56:35;11.5;68.6
78793;SHT31;68134;51.984;5.652;2024-02-21T09:59:05;11.6;69.0
78793;SHT31;68134;51.984;5.652;2024-02-21T10:01:34;11.6;68.4
78793;SHT31;68134;51.984;5.652;2024-02-21T10:04:03;11.6;68.6
78793;SHT31;68134;51.984;5.652;2024-02-21T10:06:32;11.6;68.7
78793;SHT31;68134;51.984;5.652;2024-02-21T10:09:03;11.6;68.0
78793;SHT31;68134;51.984;5.652;2024-02-21T10:11:34;11.7;68.0
78793;SHT31;68134;51.984;5.652;2024-02-21T10:14:07;11.7;68.0
78793;SHT31;68134;51.984;5.652;2024-02-21T10:16:37;11.7;68.0
78793;SHT31;68134;51.984;5.652;2024-02-21T10:19:15;11.7;68.0
78793;SHT31;68134;51.984;5.652;2024-02-21T10:21:41;11.7;68.3
78793;SHT31;68134;51.984;5.652;2024-02-21T10:24:12;11.7;68.4
78793;SHT31;68134;51.984;5.652;2024-02-21T10:26:40;11.7;68.4
78793;SHT31;68134;51.984;5.652;2024-02-21T10:29:09;11.8;68.6
78793;SHT31;68134;51.984;5.652;2024-02-21T10:31:38;11.8;68.6
78793;SHT31;68134;51.984;5.652;2024-02-21T10:34:09;11.8;68.8
78793;SHT31;68134;51.984;5.652;2024-02-21T10:36:37;11.8;69.3
78793;SHT31;68134;51.984;5.652;2024-02-21T10:39:06;11.8;69.3
78793;SHT31;68134;51.984;5.652;2024-02-21T10:41:39;11.8;69.3
78793;SHT31;68134;51.984;5.652;2024-02-21T10:44:10;11.7;69.8
78793;SHT31;68134;51.984;5.652;2024-02-21T10:46:43;11.7;69.7
78793;SHT31;68134;51.984;5.652;2024-02-21T10:49:19;11.7;69.7
78793;SHT31;68134;51.984;5.652;2024-02-21T10:51:52;11.7;70.3
78793;SHT31;68134;51.984;5.652;2024-02-21T10:54:38;11.6;70.5
78793;SHT31;68134;51.984;5.652;2024-02-21T10:57:09;11.6;71.1
78793;SHT31;68134;51.984;5.652;2024-02-21T10:59:39;11.6;71.0
78793;SHT31;68134;51.984;5.652;2024-02-21T11:02:08;11.6;71.3
78793;SHT31;68134;51.984;5.652;2024-02-21T11:04:37;11.6;71.1
78793;SHT31;68134;51.984;5.652;2024-02-21T11:07:07;11.6;71.5
78793;SHT31;68134;51.984;5.652;2024-02-21T11:09:37;11.6;70.9
78793;SHT31;68134;51.984;5.652;2024-02-21T11:12:06;11.7;71.0
78793;SHT31;68134;51.984;5.652;2024-02-21T11:14:38;11.7;71.5
78793;SHT31;68134;51.984;5.652;2024-02-21T11:17:17;11.7;71.1
78793;SHT31;68134;51.984;5.652;2024-02-21T11:19:45;11.8;70.2
78793;SHT31;68134;51.984;5.652;2024-02-21T11:22:18;11.8;70.0
78793;SHT31;68134;51.984;5.652;2024-02-21T11:24:49;11.8;69.6
78793;SHT31;68134;51.984;5.652;2024-02-21T11:27:19;11.8;69.5
78793;SHT31;68134;51.984;5.652;2024-02-21T11:29:55;11.8;69.1
78793;SHT31;68134;51.984;5.652;2024-02-21T11:32:26;11.7;69.3
78793;SHT31;68134;51.984;5.652;2024-02-21T11:34:57;11.7;68.8
78793;SHT31;68134;51.984;5.652;2024-02-21T11:37:29;11.7;68.4
78793;SHT31;68134;51.984;5.652;2024-02-21T11:40:00;11.7;68.6
78793;SHT31;68134;51.984;5.652;2024-02-21T11:42:30;11.7;69.1
78793;SHT31;68134;51.984;5.652;2024-02-21T11:44:59;11.7;68.3
78793;SHT31;68134;51.984;5.652;2024-02-21T11:47:30;11.7;68.6
78793;SHT31;68134;51.984;5.652;2024-02-21T11:49:58;11.7;68.4
78793;SHT31;68134;51.984;5.652;2024-02-21T11:52:27;11.7;68.3
78793;SHT31;68134;51.984;5.652;2024-02-21T11:54:56;11.6;68.6
78793;SHT31;68134;51.984;5.652;2024-02-21T11:57:31;11.6;68.7
78793;SHT31;68134;51.984;5.652;2024-02-21T12:00:13;11.6;68.7
78793;SHT31;68134;51.984;5.652;2024-02-21T12:02:42;11.6;68.6
78793;SHT31;68134;51.984;5.652;2024-02-21T12:05:12;11.7;68.3
78793;SHT31;68134;51.984;5.652;2024-02-21T12:07:41;11.7;68.2
78793;SHT31;68134;51.984;5.652;2024-02-21T12:10:11;11.7;68.5
78793;SHT31;68134;51.984;5.652;2024-02-21T12:12:40;11.8;68.1
78793;SHT31;68134;51.984;5.652;2024-02-21T12:15:09;11.8;67.8
78793;SHT31;68134;51.984;5.652;2024-02-21T12:17:39;11.8;68.3
78793;SHT31;68134;51.984;5.652;2024-02-21T12:20:08;11.9;67.4
78793;SHT31;68134;51.984;5.652;2024-02-21T12:22:38;12.0;67.7
78793;SHT31;68134;51.984;5.652;2024-02-21T12:25:20;12.1;67.1
78793;SHT31;68134;51.984;5.652;2024-02-21T12:27:52;12.1;66.7
78793;SHT31;68134;51.984;5.652;2024-02-21T12:30:22;12.2;66.3
78793;SHT31;68134;51.984;5.652;2024-02-21T12:32:51;12.3;66.4
78793;SHT31;68134;51.984;5.652;2024-02-21T12:35:19;12.3;66.0
78793;SHT31;68134;51.984;5.652;2024-02-21T12:37:48;12.3;65.6
78793;SHT31;68134;51.984;5.652;2024-02-21T12:40:16;12.4;65.5
78793;SHT31;68134;51.984;5.652;2024-02-21T12:42:47;12.4;65.1
78793;SHT31;68134;51.984;5.652;2024-02-21T12:45:17;12.4;64.9
78793;SHT31;68134;51.984;5.652;2024-02-21T12:47:46;12.4;65.6
78793;SHT31;68134;51.984;5.652;2024-02-21T12:50:14;12.4;65.5
78793;SHT31;68134;51.984;5.652;2024-02-21T12:52:43;12.5;64.9
78793;SHT31;68134;51.984;5.652;2024-02-21T12:55:12;12.5;65.0
78793;SHT31;68134;51.984;5.652;2024-02-21T12:57:41;12.5;64.9
78793;SHT31;68134;51.984;5.652;2024-02-21T13:00:11;12.5;64.5
78793;SHT31;68134;51.984;5.652;2024-02-21T13:02:40;12.5;64.9
78793;SHT31;68134;51.984;5.652;2024-02-21T13:05:09;12.5;65.2
78793;SHT31;68134;51.984;5.652;2024-02-21T13:07:38;12.5;65.0
78793;SHT31;68134;51.984;5.652;2024-02-21T13:10:07;12.5;64.4
78793;SHT31;68134;51.984;5.652;2024-02-21T13:12:36;12.5;64.2
78793;SHT31;68134;51.984;5.652;2024-02-21T13:15:06;12.5;64.7
78793;SHT31;68134;51.984;5.652;2024-02-21T13:17:38;12.5;64.5
78793;SHT31;68134;51.984;5.652;2024-02-21T13:20:10;12.5;64.4
78793;SHT31;68134;51.984;5.652;2024-02-21T13:22:39;12.5;64.5
78793;SHT31;68134;51.984;5.652;2024-02-21T13:25:10;12.5;64.7
78793;SHT31;68134;51.984;5.652;2024-02-21T13:27:41;12.5;64.4
78793;SHT31;68134;51.984;5.652;2024-02-21T13:30:11;12.5;64.7
78793;SHT31;68134;51.984;5.652;2024-02-21T13:32:42;12.5;64.7
78793;SHT31;68134;51.984;5.652;2024-02-21T13:35:14;12.6;64.8
78793;SHT31;68134;51.984;5.652;2024-02-21T13:37:43;12.6;64.9
78793;SHT31;68134;51.984;5.652;2024-02-21T13:40:12;12.6;64.5
78793;SHT31;68134;51.984;5.652;2024-02-21T13:42:41;12.6;64.5
78793;SHT31;68134;51.984;5.652;2024-02-21T13:45:11;12.6;63.9
78793;SHT31;68134;51.984;5.652;2024-02-21T13:47:40;12.6;64.2
78793;SHT31;68134;51.984;5.652;2024-02-21T13:50:08;12.6;64.4
78793;SHT31;68134;51.984;5.652;2024-02-21T13:52:38;12.6;63.6
78793;SHT31;68134;51.984;5.652;2024-02-21T13:55:07;12.6;63.7
78793;SHT31;68134;51.984;5.652;2024-02-21T13:57:36;12.6;64.0
78793;SHT31;68134;51.984;5.652;2024-02-21T14:00:06;12.6;64.3
78793;SHT31;68134;51.984;5.652;2024-02-21T14:02:37;12.6;64.2
78793;SHT31;68134;51.984;5.652;2024-02-21T14:05:06;12.6;64.0
78793;SHT31;68134;51.984;5.652;2024-02-21T14:07:35;12.6;63.8
78793;SHT31;68134;51.984;5.652;2024-02-21T14:10:06;12.6;64.1
78793;SHT31;68134;51.984;5.652;2024-02-21T14:12:36;12.6;64.2
78793;SHT31;68134;51.984;5.652;2024-02-21T14:15:06;12.6;63.9
78793;SHT31;68134;51.984;5.652;2024-02-21T14:17:35;12.7;63.8
78793;SHT31;68134;51.984;5.652;2024-02-21T14:20:07;12.7;63.5
78793;SHT31;68134;51.984;5.652;2024-02-21T14:22:35;12.7;64.0
78793;SHT31;68134;51.984;5.652;2024-02-21T14:25:05;12.7;64.2
78793;SHT31;68134;51.984;5.652;2024-02-21T14:27:34;12.7;63.4
78793;SHT31;68134;51.984;5.652;2024-02-21T14:30:05;12.7;63.4
78793;SHT31;68134;51.984;5.652;2024-02-21T14:32:37;12.7;63.8
78793;SHT31;68134;51.984;5.652;2024-02-21T14:35:06;12.7;63.3
78793;SHT31;68134;51.984;5.652;2024-02-21T14:37:36;12.7;63.1
78793;SHT31;68134;51.984;5.652;2024-02-21T14:40:06;12.7;63.2
78793;SHT31;68134;51.984;5.652;2024-02-21T14:42:34;12.7;62.3
78793;SHT31;68134;51.984;5.652;2024-02-21T14:45:03;12.6;62.3
78793;SHT31;68134;51.984;5.652;2024-02-21T14:47:33;12.6;62.3
78793;SHT31;68134;51.984;5.652;2024-02-21T14:50:03;12.6;62.6
78793;SHT31;68134;51.984;5.652;2024-02-21T14:52:33;12.6;62.6
78793;SHT31;68134;51.984;5.652;2024-02-21T14:55:03;12.6;63.0
78793;SHT31;68134;51.984;5.652;2024-02-21T14:57:32;12.6;63.0
78793;SHT31;68134;51.984;5.652;2024-02-21T15:00:00;12.6;63.6
78793;SHT31;68134;51.984;5.652;2024-02-21T15:02:29;12.6;64.1
78793;SHT31;68134;51.984;5.652;2024-02-21T15:04:59;12.5;64.1
78793;SHT31;68134;51.984;5.652;2024-02-21T15:07:28;12.5;64.7
78793;SHT31;68134;51.984;5.652;2024-02-21T15:09:57;12.5;64.6
78793;SHT31;68134;51.984;5.652;2024-02-21T15:12:26;12.5;64.7
78793;SHT31;68134;51.984;5.652;2024-02-21T15:14:56;12.4;65.0
78793;SHT31;68134;51.984;5.652;2024-02-21T15:17:25;12.4;65.2
78793;SHT31;68134;51.984;5.652;2024-02-21T15:19:54;12.3;66.1
78793;SHT31;68134;51.984;5.652;2024-02-21T15:22:25;12.2;66.0
78793;SHT31;68134;51.984;5.652;2024-02-21T15:24:54;12.2;66.7
78793;SHT31;68134;51.984;5.652;2024-02-21T15:27:22;12.1;67.7
78793;SHT31;68134;51.984;5.652;2024-02-21T15:29:52;12.0;68.5
78793;SHT31;68134;51.984;5.652;2024-02-21T15:32:23;11.9;68.8
78793;SHT31;68134;51.984;5.652;2024-02-21T15:34:52;11.8;69.9
78793;SHT31;68134;51.984;5.652;2024-02-21T15:37:20;11.7;70.4
78793;SHT31;68134;51.984;5.652;2024-02-21T15:39:49;11.7;70.8
78793;SHT31;68134;51.984;5.652;2024-02-21T15:42:18;11.6;70.8
78793;SHT31;68134;51.984;5.652;2024-02-21T15:44:47;11.6;71.1
78793;SHT31;68134;51.984;5.652;2024-02-21T15:47:15;11.6;71.2
78793;SHT31;68134;51.984;5.652;2024-02-21T15:49:45;11.5;71.9
78793;SHT31;68134;51.984;5.652;2024-02-21T15:52:16;11.5;72.1
78793;SHT31;68134;51.984;5.652;2024-02-21T15:54:46;11.5;72.5
78793;SHT31;68134;51.984;5.652;2024-02-21T15:57:15;11.4;72.4
78793;SHT31;68134;51.984;5.652;2024-02-21T15:59:44;11.4;72.6
78793;SHT31;68134;51.984;5.652;2024-02-21T16:02:12;11.4;72.9
78793;SHT31;68134;51.984;5.652;2024-02-21T16:04:42;11.4;73.3
78793;SHT31;68134;51.984;5.652;2024-02-21T16:07:11;11.4;72.9
78793;SHT31;68134;51.984;5.652;2024-02-21T16:09:40;11.3;73.0
78793;SHT31;68134;51.984;5.652;2024-02-21T16:12:10;11.3;72.9
78793;SHT31;68134;51.984;5.652;2024-02-21T16:14:39;11.2;73.5
78793;SHT31;68134;51.984;5.652;2024-02-21T16:17:08;11.2;74.4